Tarata, Bolivia
Current Conditions -  °F | °C
As of 4:00 PM on Sunday 21 Dec 2014 (Local Time) from SLCB Reporting Station
Scattered Clouds Scattered Clouds  
Wind Chill: 86°   Ceiling: Unl
Heat Index: 86°   Visibility: 6mi
Dew Point: 23°   Wind: 9mph
Humidity: 10%   Direction: 290°WNW
Pressure: 29.97"   Gusts: NA
Location:  17.62°S, 66.03°W
Report Text: SLCB 212000Z 29008KT 9999 FEW027 FEW030CB SCT200 30/M05 Q1015
Loading
Personal Weather Stations






























Interactive Weather Map New forecast layout! Learn more

10-Day Weather Forecast

Advertisements
Track Severe Weather on mobile